createdAt,value
2018-12-11T00:01:14.186Z,3.50
2018-12-11T00:03:42.340Z,4.03
2018-12-11T00:06:10.554Z,2.97
2018-12-11T00:08:38.695Z,4.07
2018-12-11T00:11:06.877Z,7.17
2018-12-11T00:13:35.021Z,5.03
2018-12-11T00:16:03.239Z,6.83
2018-12-11T00:18:32.049Z,3.20
2018-12-11T00:21:00.198Z,5.13
2018-12-11T00:23:28.411Z,3.90
2018-12-11T00:25:56.582Z,6.00
2018-12-11T00:28:24.743Z,3.30
2018-12-11T00:30:52.878Z,15.27
2018-12-11T00:33:21.192Z,2.50
2018-12-11T00:35:49.329Z,3.10
2018-12-11T00:38:17.531Z,8.97
2018-12-11T00:40:45.737Z,4.90
2018-12-11T00:43:13.914Z,2.10
2018-12-11T00:45:42.052Z,3.35
2018-12-11T00:48:10.205Z,2.53
2018-12-11T00:50:38.429Z,2.20
2018-12-11T00:53:06.633Z,3.23
2018-12-11T00:55:34.767Z,3.13
2018-12-11T00:58:03.734Z,2.60
2018-12-11T01:00:31.930Z,4.33
2018-12-11T01:03:00.075Z,1.90
2018-12-11T01:05:28.329Z,2.30
2018-12-11T01:08:02.971Z,2.00
2018-12-11T01:10:31.106Z,1.90
2018-12-11T01:12:59.319Z,4.33
2018-12-11T01:15:27.444Z,8.50
2018-12-11T01:17:55.910Z,3.47
2018-12-11T01:20:24.132Z,3.30
2018-12-11T01:22:52.284Z,6.60
2018-12-11T01:25:20.411Z,2.90
2018-12-11T01:27:48.535Z,3.20
2018-12-11T01:30:16.675Z,2.50
2018-12-11T01:32:44.879Z,1.27
2018-12-11T01:35:13.003Z,3.20
2018-12-11T01:37:41.151Z,2.90
2018-12-11T01:40:09.342Z,3.23
2018-12-11T01:42:37.474Z,3.93
2018-12-11T01:45:06.186Z,4.75
2018-12-11T01:47:34.910Z,1.45
2018-12-11T01:50:03.459Z,1.80
2018-12-11T01:52:31.752Z,1.40
2018-12-11T01:54:59.966Z,4.13
2018-12-11T01:57:28.101Z,8.23
2018-12-11T01:59:56.291Z,7.20
2018-12-11T02:02:24.656Z,1.70
2018-12-11T02:04:52.791Z,1.83
2018-12-11T02:07:20.925Z,3.40
2018-12-11T02:09:49.090Z,2.90
2018-12-11T02:12:17.279Z,1.22
2018-12-11T02:14:45.426Z,2.85
2018-12-11T02:17:13.566Z,2.97
2018-12-11T02:19:41.689Z,5.03
2018-12-11T02:22:09.850Z,1.40
2018-12-11T02:24:38.109Z,11.30
2018-12-11T02:27:06.234Z,1.37
2018-12-11T02:29:34.386Z,4.17
2018-12-11T02:32:02.569Z,3.63
2018-12-11T02:34:30.808Z,2.30
2018-12-11T02:36:59.038Z,1.10
2018-12-11T02:39:27.229Z,3.70
2018-12-11T02:41:55.621Z,1.67
2018-12-11T02:44:23.842Z,1.70
2018-12-11T02:46:52.014Z,3.83
2018-12-11T02:49:20.147Z,3.03
2018-12-11T02:51:48.428Z,2.80
2018-12-11T02:54:16.584Z,2.12
2018-12-11T02:56:45.064Z,2.30
2018-12-11T02:59:13.198Z,1.50
2018-12-11T03:01:41.340Z,3.43
2018-12-11T03:04:09.691Z,2.83
2018-12-11T03:06:37.938Z,7.17
2018-12-11T03:09:08.035Z,7.78
2018-12-11T03:11:37.168Z,1.62
2018-12-11T03:14:05.396Z,4.60
2018-12-11T03:16:33.650Z,3.10
2018-12-11T03:19:01.802Z,2.03
2018-12-11T03:21:29.936Z,3.43
2018-12-11T03:23:58.090Z,2.80
2018-12-11T03:26:26.320Z,1.40
2018-12-11T03:28:54.459Z,1.70
2018-12-11T03:31:22.821Z,2.40
2018-12-11T03:33:50.999Z,3.57
2018-12-11T03:36:19.554Z,1.60
2018-12-11T03:38:47.807Z,4.83
2018-12-11T03:41:16.269Z,1.15
2018-12-11T03:43:44.406Z,2.80
2018-12-11T03:46:12.647Z,2.40
2018-12-11T03:48:40.907Z,1.72
2018-12-11T03:51:09.297Z,5.42
2018-12-11T03:53:38.192Z,1.30
2018-12-11T03:56:06.316Z,2.90
2018-12-11T03:58:34.646Z,2.37
2018-12-11T04:01:02.806Z,1.70
2018-12-11T04:03:30.930Z,3.00
2018-12-11T04:05:59.161Z,2.90
2018-12-11T04:08:27.295Z,4.10
2018-12-11T04:10:55.455Z,1.73
2018-12-11T04:13:23.645Z,5.45
2018-12-11T04:15:51.777Z,3.15
2018-12-11T04:18:19.896Z,5.60
2018-12-11T04:20:48.158Z,1.30
2018-12-11T04:23:16.319Z,5.00
2018-12-11T04:25:44.479Z,3.07
2018-12-11T04:28:12.741Z,2.37
2018-12-11T04:30:40.973Z,1.60
2018-12-11T04:33:09.430Z,3.08
2018-12-11T04:35:37.575Z,4.93
2018-12-11T04:38:05.807Z,1.40
2018-12-11T04:40:33.974Z,4.47
2018-12-11T04:43:02.099Z,5.53
2018-12-11T04:45:30.263Z,2.90
2018-12-11T04:47:58.471Z,7.37
2018-12-11T04:50:26.633Z,2.00
2018-12-11T04:52:54.806Z,7.93
2018-12-11T04:55:23.105Z,4.30
2018-12-11T04:57:51.266Z,4.87
2018-12-11T05:00:19.673Z,4.00
2018-12-11T05:02:47.891Z,3.43
2018-12-11T05:05:16.173Z,5.00
2018-12-11T05:07:44.308Z,2.25
2018-12-11T05:10:12.612Z,3.70
2018-12-11T05:12:40.729Z,2.43
2018-12-11T05:15:09.001Z,5.80
2018-12-11T05:17:37.129Z,2.40
2018-12-11T05:20:05.579Z,1.60
2018-12-11T05:22:33.774Z,3.33
2018-12-11T05:25:01.935Z,1.98
2018-12-11T05:27:30.109Z,3.80
2018-12-11T05:29:58.240Z,4.83
2018-12-11T05:32:26.866Z,1.60
2018-12-11T05:34:55.020Z,1.27
2018-12-11T05:37:30.004Z,2.33
2018-12-11T05:39:58.163Z,6.43
2018-12-11T05:42:26.298Z,5.77
2018-12-11T05:44:54.487Z,2.27
2018-12-11T05:47:22.614Z,2.52
2018-12-11T05:49:50.759Z,1.90
2018-12-11T05:52:19.013Z,4.27
2018-12-11T05:54:47.408Z,7.53
2018-12-11T05:57:15.613Z,2.70
2018-12-11T05:59:43.739Z,8.13
2018-12-11T06:02:12.492Z,5.87
2018-12-11T06:04:40.733Z,3.83
2018-12-11T06:07:08.876Z,9.40
2018-12-11T06:09:37.061Z,2.40
2018-12-11T06:12:05.382Z,4.40
2018-12-11T06:14:33.522Z,6.60
2018-12-11T06:17:01.734Z,6.00
2018-12-11T06:19:29.925Z,7.03
2018-12-11T06:21:58.285Z,3.20
2018-12-11T06:24:26.486Z,3.97
2018-12-11T06:26:54.609Z,5.97
2018-12-11T06:29:22.980Z,5.10
2018-12-11T06:31:51.134Z,4.90
2018-12-11T06:34:19.323Z,4.27
2018-12-11T06:36:47.507Z,4.43
2018-12-11T06:39:15.678Z,2.97
2018-12-11T06:41:43.816Z,3.83
2018-12-11T06:44:12.085Z,9.83
2018-12-11T06:46:40.279Z,3.57
2018-12-11T06:49:08.542Z,10.23
2018-12-11T06:51:37.323Z,5.10
2018-12-11T06:54:05.537Z,5.90
2018-12-11T06:56:33.657Z,2.40
2018-12-11T06:59:01.781Z,4.93
2018-12-11T07:01:29.962Z,2.33
2018-12-11T07:03:58.169Z,4.73
2018-12-11T07:06:26.443Z,4.25
2018-12-11T07:08:54.675Z,4.50
2018-12-11T07:11:22.937Z,3.50
2018-12-11T07:13:51.061Z,1.70
2018-12-11T07:16:19.200Z,7.63
2018-12-11T07:18:47.330Z,2.83
2018-12-11T07:21:15.469Z,14.93
2018-12-11T07:23:44.398Z,2.70
2018-12-11T07:26:12.651Z,5.00
2018-12-11T07:28:40.856Z,5.17
2018-12-11T07:31:09.031Z,5.83
2018-12-11T07:33:37.282Z,4.47
2018-12-11T07:36:05.602Z,17.13
2018-12-11T07:38:34.737Z,8.97
2018-12-11T07:41:03.106Z,5.30
2018-12-11T07:43:31.234Z,2.43
2018-12-11T07:45:59.386Z,2.93
2018-12-11T07:48:27.512Z,4.20
2018-12-11T07:50:55.642Z,5.30
2018-12-11T07:53:23.786Z,6.83
2018-12-11T07:55:52.066Z,11.60
2018-12-11T07:58:20.258Z,8.93
2018-12-11T08:00:48.398Z,8.50
2018-12-11T08:03:16.520Z,4.63
2018-12-11T08:05:45.602Z,2.50
2018-12-11T08:08:18.801Z,3.03
2018-12-11T08:10:47.039Z,8.63
2018-12-11T08:13:15.861Z,8.78
2018-12-11T08:15:43.990Z,8.80
2018-12-11T08:18:12.241Z,5.83
2018-12-11T08:20:40.398Z,2.33
2018-12-11T08:23:08.611Z,2.83
2018-12-11T08:25:36.969Z,3.17
2018-12-11T08:28:05.110Z,3.62
2018-12-11T08:30:33.251Z,6.60
2018-12-11T08:33:01.462Z,3.97
2018-12-11T08:35:29.591Z,5.20
2018-12-11T08:37:57.810Z,2.50
2018-12-11T08:40:25.941Z,7.77
2018-12-11T08:42:54.086Z,6.27
2018-12-11T08:45:22.242Z,4.37
2018-12-11T08:47:50.374Z,5.73
2018-12-11T08:50:18.522Z,5.60
2018-12-11T08:52:47.107Z,5.05
2018-12-11T08:55:15.282Z,2.90
2018-12-11T08:57:43.506Z,4.10
2018-12-11T09:00:11.906Z,3.60
2018-12-11T09:02:40.050Z,6.40
2018-12-11T09:05:08.210Z,3.35
2018-12-11T09:07:36.509Z,7.70
2018-12-11T09:10:05.777Z,2.50
2018-12-11T09:12:34.119Z,2.80
2018-12-11T09:15:02.267Z,3.57
2018-12-11T09:17:30.435Z,3.13
2018-12-11T09:19:58.595Z,4.57
2018-12-11T09:22:26.727Z,5.30
2018-12-11T09:24:54.951Z,4.60
2018-12-11T09:27:23.122Z,3.27
2018-12-11T09:29:51.289Z,3.73
2018-12-11T09:32:19.468Z,8.63
2018-12-11T09:34:48.470Z,4.60
2018-12-11T09:37:16.645Z,3.60
2018-12-11T09:39:45.859Z,2.57
2018-12-11T09:42:14.301Z,3.37
2018-12-11T09:44:42.430Z,4.13
2018-12-11T09:47:10.584Z,5.50
2018-12-11T09:49:38.930Z,5.33
2018-12-11T09:52:07.158Z,3.53
2018-12-11T09:54:35.298Z,7.00
2018-12-11T09:57:03.611Z,3.37
2018-12-11T09:59:31.885Z,8.97
2018-12-11T10:02:00.068Z,5.43
2018-12-11T10:04:28.354Z,4.83
2018-12-11T10:06:56.740Z,5.57
2018-12-11T10:09:24.967Z,6.13
2018-12-11T10:11:53.114Z,3.00
2018-12-11T10:14:21.253Z,3.10
2018-12-11T10:16:49.771Z,10.98
2018-12-11T10:19:17.902Z,3.30
2018-12-11T10:21:46.130Z,3.37
2018-12-11T10:24:14.257Z,10.47
2018-12-11T10:26:42.467Z,7.40
2018-12-11T10:29:10.644Z,3.57
2018-12-11T10:31:38.797Z,3.20
2018-12-11T10:34:06.952Z,5.70
2018-12-11T10:36:35.202Z,6.17
2018-12-11T10:39:04.659Z,6.85
2018-12-11T10:41:32.860Z,3.73
2018-12-11T10:44:00.993Z,8.47
2018-12-11T10:46:33.740Z,5.90
2018-12-11T10:48:59.273Z,3.10
2018-12-11T10:51:27.566Z,3.83
2018-12-11T10:53:55.756Z,3.50
2018-12-11T10:56:24.043Z,5.10
2018-12-11T10:58:52.258Z,4.58
2018-12-11T11:01:25.709Z,5.17
2018-12-11T11:03:53.839Z,5.03
2018-12-11T11:06:22.264Z,7.50
2018-12-11T11:08:50.588Z,5.22
2018-12-11T11:11:18.775Z,3.20
2018-12-11T11:13:47.057Z,3.57
2018-12-11T11:16:15.534Z,2.30
2018-12-11T11:18:44.873Z,5.47
2018-12-11T11:21:13.266Z,2.67
2018-12-11T11:23:41.485Z,6.03
2018-12-11T11:26:09.647Z,3.50
2018-12-11T11:28:37.790Z,5.43
2018-12-11T11:31:06.109Z,5.43
2018-12-11T11:33:34.266Z,9.40
2018-12-11T11:36:02.473Z,5.77
2018-12-11T11:38:30.689Z,4.57
2018-12-11T11:40:58.826Z,3.92
2018-12-11T11:43:26.953Z,5.47
2018-12-11T11:45:55.095Z,5.35
2018-12-11T11:48:23.219Z,2.63
2018-12-11T11:50:51.378Z,2.27
2018-12-11T11:53:19.615Z,2.90
2018-12-11T11:55:47.754Z,2.47
2018-12-11T11:58:15.885Z,2.47
2018-12-11T12:00:44.041Z,4.00
2018-12-11T12:03:12.337Z,5.13
2018-12-11T12:05:40.566Z,2.40
2018-12-11T12:08:08.742Z,4.83
2018-12-11T12:10:37.022Z,5.53
2018-12-11T12:13:05.236Z,3.58
2018-12-11T12:15:33.558Z,2.30
2018-12-11T12:18:01.858Z,3.10
2018-12-11T12:20:30.026Z,4.83
2018-12-11T12:22:58.171Z,7.17
2018-12-11T12:25:26.306Z,2.67
2018-12-11T12:27:55.010Z,4.40
2018-12-11T12:30:25.127Z,2.57
2018-12-11T12:32:53.316Z,3.80
2018-12-11T12:35:21.455Z,6.30
2018-12-11T12:37:49.616Z,2.63
2018-12-11T12:40:17.770Z,3.93
2018-12-11T12:42:45.897Z,4.20
2018-12-11T12:45:14.125Z,5.53
2018-12-11T12:47:42.317Z,6.40
2018-12-11T12:50:10.537Z,3.00
2018-12-11T12:52:38.708Z,5.17
2018-12-11T12:55:06.986Z,4.17
2018-12-11T12:57:35.114Z,8.53
2018-12-11T13:00:03.353Z,6.63
2018-12-11T13:02:31.488Z,7.23
2018-12-11T13:04:59.655Z,6.47
2018-12-11T13:07:27.822Z,4.43
2018-12-11T13:09:56.717Z,6.42
2018-12-11T13:12:25.031Z,7.27
2018-12-11T13:14:53.147Z,4.83
2018-12-11T13:17:21.327Z,4.30
2018-12-11T13:19:49.454Z,10.70
2018-12-11T13:22:17.669Z,3.80
2018-12-11T13:24:45.802Z,2.63
2018-12-11T13:27:14.037Z,3.63
2018-12-11T13:29:42.214Z,3.27
2018-12-11T13:32:10.526Z,2.75
2018-12-11T13:34:38.695Z,3.75
2018-12-11T13:37:06.918Z,2.70
2018-12-11T13:39:35.067Z,4.30
2018-12-11T13:42:03.310Z,4.30
2018-12-11T13:44:31.546Z,3.70
2018-12-11T13:46:59.777Z,4.63
2018-12-11T13:49:28.482Z,4.40
2018-12-11T13:51:56.634Z,3.87
2018-12-11T13:54:24.778Z,7.50
2018-12-11T13:56:53.205Z,2.40
2018-12-11T13:59:21.404Z,4.87
2018-12-11T14:01:49.531Z,7.67
2018-12-11T14:04:17.708Z,4.20
2018-12-11T14:06:46.001Z,8.40
2018-12-11T14:09:19.805Z,5.83
2018-12-11T14:11:48.046Z,8.20
2018-12-11T14:14:16.203Z,7.15
2018-12-11T14:16:44.545Z,7.93
2018-12-11T14:19:12.692Z,7.97
2018-12-11T14:21:40.969Z,9.03
2018-12-11T14:24:09.289Z,3.50
2018-12-11T14:26:37.477Z,9.33
2018-12-11T14:29:05.802Z,9.60
2018-12-11T14:31:34.079Z,6.70
2018-12-11T14:34:02.341Z,4.33
2018-12-11T14:36:30.588Z,3.20
2018-12-11T14:38:58.748Z,4.07
2018-12-11T14:41:26.953Z,10.23
2018-12-11T14:43:55.100Z,7.00
2018-12-11T14:46:23.246Z,5.43
2018-12-11T14:48:51.666Z,10.93
2018-12-11T14:51:19.804Z,6.90
2018-12-11T14:53:47.958Z,10.70
2018-12-11T14:56:16.748Z,9.53
2018-12-11T14:58:45.001Z,6.10
2018-12-11T15:01:13.254Z,5.87
2018-12-11T15:03:41.554Z,5.97
2018-12-11T15:06:09.916Z,5.22
2018-12-11T15:08:38.074Z,7.50
2018-12-11T15:11:06.213Z,3.37
2018-12-11T15:13:34.341Z,10.40
2018-12-11T15:16:02.556Z,7.47
2018-12-11T15:18:30.702Z,5.67
2018-12-11T15:20:58.930Z,5.17
2018-12-11T15:23:27.077Z,5.87
2018-12-11T15:25:55.265Z,9.23
2018-12-11T15:28:23.405Z,7.77
2018-12-11T15:31:01.622Z,6.57
2018-12-11T15:33:29.779Z,6.63
2018-12-11T15:35:57.903Z,10.03
2018-12-11T15:38:26.061Z,6.53
2018-12-11T15:40:54.218Z,9.03
2018-12-11T15:43:22.986Z,7.50
2018-12-11T15:45:51.122Z,5.77
2018-12-11T15:48:19.397Z,11.50
2018-12-11T15:50:47.651Z,13.33
2018-12-11T15:53:15.996Z,12.13
2018-12-11T15:55:44.202Z,6.93
2018-12-11T15:58:12.350Z,5.90
2018-12-11T16:00:40.490Z,7.10
2018-12-11T16:03:08.781Z,8.95
2018-12-11T16:05:36.916Z,4.50
2018-12-11T16:08:05.154Z,9.50
2018-12-11T16:10:34.042Z,5.12
2018-12-11T16:13:02.169Z,12.90
2018-12-11T16:15:30.350Z,3.80
2018-12-11T16:17:58.469Z,8.93
2018-12-11T16:20:26.623Z,8.73
2018-12-11T16:22:54.773Z,11.83
2018-12-11T16:25:23.111Z,10.40
2018-12-11T16:27:51.357Z,12.03
2018-12-11T16:30:19.506Z,10.37
2018-12-11T16:32:47.798Z,8.47
2018-12-11T16:35:15.919Z,13.90
2018-12-11T16:37:44.354Z,9.53
2018-12-11T16:40:13.014Z,9.83
2018-12-11T16:42:41.171Z,9.80
2018-12-11T16:45:09.396Z,11.93
2018-12-11T16:47:37.537Z,12.18
2018-12-11T16:50:05.908Z,14.87
2018-12-11T16:52:34.045Z,8.60
2018-12-11T16:55:02.177Z,7.50
2018-12-11T16:57:30.314Z,9.20
2018-12-11T16:59:58.469Z,15.07
2018-12-11T17:02:26.669Z,7.63
2018-12-11T17:04:54.850Z,17.70
2018-12-11T17:07:23.289Z,11.83
2018-12-11T17:09:51.400Z,7.57
2018-12-11T17:12:19.709Z,9.95
2018-12-11T17:14:47.814Z,5.57
2018-12-11T17:17:16.071Z,7.40
2018-12-11T17:19:44.205Z,8.10
2018-12-11T17:22:12.379Z,10.70
2018-12-11T17:24:40.522Z,11.93
2018-12-11T17:27:08.934Z,9.88
2018-12-11T17:29:37.081Z,6.00
2018-12-11T17:32:05.215Z,7.93
2018-12-11T17:34:33.338Z,9.57
2018-12-11T17:37:01.487Z,14.93
2018-12-11T17:39:29.644Z,49.90
2018-12-11T17:41:57.758Z,21.67
2018-12-11T17:44:25.950Z,11.90
2018-12-11T17:46:54.186Z,11.93
2018-12-11T17:49:22.362Z,10.30
2018-12-11T17:51:50.478Z,10.00
2018-12-11T17:54:18.781Z,12.53
2018-12-11T17:56:47.178Z,8.37
2018-12-11T17:59:15.479Z,7.43
2018-12-11T18:01:45.316Z,20.43
2018-12-11T18:04:13.477Z,12.30
2018-12-11T18:06:41.733Z,12.50
2018-12-11T18:09:10.273Z,9.33
2018-12-11T18:11:38.457Z,13.70
2018-12-11T18:14:06.604Z,11.67
2018-12-11T18:16:34.751Z,14.10
2018-12-11T18:19:02.895Z,12.80
2018-12-11T18:21:31.030Z,13.97
2018-12-11T18:23:59.162Z,8.47
2018-12-11T18:26:27.422Z,10.60
2018-12-11T18:28:55.619Z,11.65
2018-12-11T18:31:23.796Z,14.38
2018-12-11T18:33:52.091Z,12.93
2018-12-11T18:36:20.228Z,15.77
2018-12-11T18:38:48.370Z,11.07
2018-12-11T18:41:16.573Z,9.93
2018-12-11T18:43:44.699Z,10.83
2018-12-11T18:46:12.925Z,10.33
2018-12-11T18:48:41.450Z,10.28
2018-12-11T18:51:09.752Z,7.97
2018-12-11T18:53:37.876Z,9.00
2018-12-11T18:56:06.208Z,8.47
2018-12-11T18:58:34.503Z,10.07
2018-12-11T19:01:02.754Z,13.70
2018-12-11T19:03:30.904Z,9.23
2018-12-11T19:05:59.033Z,10.97
2018-12-11T19:08:27.275Z,15.43
2018-12-11T19:10:55.406Z,14.13
2018-12-11T19:13:23.553Z,12.57
2018-12-11T19:15:51.988Z,13.03
2018-12-11T19:18:20.319Z,16.55
2018-12-11T19:20:48.534Z,18.00
2018-12-11T19:24:25.458Z,13.57
2018-12-11T19:26:53.682Z,8.70
2018-12-11T19:29:21.897Z,11.87
2018-12-11T19:31:50.045Z,16.80
2018-12-11T19:34:18.188Z,8.80
2018-12-11T19:36:46.305Z,8.70
2018-12-11T19:39:14.454Z,16.47
2018-12-11T19:41:43.165Z,15.18
2018-12-11T19:44:11.300Z,8.33
2018-12-11T19:46:39.429Z,13.93
2018-12-11T19:49:07.574Z,11.53
2018-12-11T19:51:35.718Z,13.13
2018-12-11T19:54:04.013Z,15.00
2018-12-11T19:56:32.180Z,11.33
2018-12-11T19:59:00.329Z,13.37
2018-12-11T20:01:28.798Z,13.83
2018-12-11T20:03:57.243Z,16.77
2018-12-11T20:06:25.445Z,7.63
2018-12-11T20:08:53.565Z,6.62
2018-12-11T20:11:21.823Z,9.20
2018-12-11T20:13:50.122Z,8.05
2018-12-11T20:16:18.282Z,16.00
2018-12-11T20:18:46.405Z,8.27
2018-12-11T20:21:14.579Z,11.80
2018-12-11T20:23:42.725Z,16.57
2018-12-11T20:26:10.990Z,14.43
2018-12-11T20:28:39.246Z,15.60
2018-12-11T20:31:07.376Z,9.17
2018-12-11T20:33:35.831Z,12.03
2018-12-11T20:36:04.270Z,10.57
2018-12-11T20:38:32.501Z,18.60
2018-12-11T20:41:00.634Z,9.57
2018-12-11T20:43:30.122Z,14.70
2018-12-11T20:45:58.605Z,11.93
2018-12-11T20:48:27.120Z,15.80
2018-12-11T20:50:55.250Z,8.87
2018-12-11T20:53:23.407Z,13.33
2018-12-11T20:55:51.566Z,10.50
2018-12-11T20:58:19.910Z,10.80
2018-12-11T21:00:48.030Z,9.50
2018-12-11T21:03:16.190Z,13.07
2018-12-11T21:05:44.370Z,17.57
2018-12-11T21:08:12.645Z,11.90
2018-12-11T21:10:40.821Z,12.70
2018-12-11T21:13:08.964Z,26.67
2018-12-11T21:15:37.091Z,25.93
2018-12-11T21:18:05.258Z,17.47
2018-12-11T21:20:33.438Z,20.57
2018-12-11T21:23:01.591Z,21.97
2018-12-11T21:25:29.765Z,26.23
2018-12-11T21:27:57.940Z,18.47
2018-12-11T21:30:26.073Z,14.63
2018-12-11T21:32:54.305Z,16.37
2018-12-11T21:35:22.483Z,14.60
2018-12-11T21:37:50.631Z,17.30
2018-12-11T21:40:18.858Z,11.67
2018-12-11T21:42:47.001Z,8.47
2018-12-11T21:45:15.237Z,13.77
2018-12-11T21:47:43.410Z,14.90
2018-12-11T21:50:11.759Z,13.70
2018-12-11T21:52:39.922Z,19.87
2018-12-11T21:55:08.490Z,14.93
2018-12-11T21:57:36.986Z,21.20
2018-12-11T22:02:37.458Z,16.00
2018-12-11T22:05:06.165Z,14.40
2018-12-11T22:07:34.339Z,15.33
2018-12-11T22:10:02.475Z,16.90
2018-12-11T22:12:30.957Z,18.85
2018-12-11T22:14:59.098Z,23.93
2018-12-11T22:17:27.224Z,19.80
2018-12-11T22:19:55.355Z,20.97
2018-12-11T22:22:23.724Z,17.40
2018-12-11T22:24:51.910Z,13.55
2018-12-11T22:27:20.090Z,33.78
2018-12-11T22:29:48.279Z,20.83
2018-12-11T22:32:16.597Z,17.00
2018-12-11T22:34:44.755Z,19.90
2018-12-11T22:37:12.992Z,19.70
2018-12-11T22:39:41.161Z,19.67
2018-12-11T22:42:09.277Z,18.63
2018-12-11T22:44:37.536Z,16.57
2018-12-11T22:47:05.676Z,17.70
2018-12-11T22:49:34.021Z,18.15
2018-12-11T22:52:02.165Z,14.70
2018-12-11T22:54:30.375Z,15.67
2018-12-11T22:56:58.551Z,15.70
2018-12-11T22:59:26.743Z,19.47
2018-12-11T23:01:54.951Z,17.87
2018-12-11T23:04:23.236Z,17.15
2018-12-11T23:06:51.389Z,19.73
2018-12-11T23:09:19.587Z,21.20
2018-12-11T23:11:47.834Z,22.73
2018-12-11T23:14:15.999Z,12.90
2018-12-11T23:16:44.134Z,19.33
2018-12-11T23:19:12.282Z,19.27
2018-12-11T23:21:40.429Z,12.20
2018-12-11T23:24:08.615Z,9.20
2018-12-11T23:26:36.742Z,14.50
2018-12-11T23:29:05.073Z,13.90
2018-12-11T23:31:33.308Z,13.70
2018-12-11T23:34:01.454Z,13.90
2018-12-11T23:36:29.571Z,8.83
2018-12-11T23:38:57.722Z,11.30
2018-12-11T23:41:26.144Z,12.97
2018-12-11T23:43:54.368Z,16.75
2018-12-11T23:46:22.578Z,16.42
2018-12-11T23:48:51.946Z,16.13
2018-12-11T23:51:20.065Z,8.50
2018-12-11T23:53:48.240Z,16.27
2018-12-11T23:56:16.391Z,14.40
2018-12-11T23:58:45.008Z,12.90
